createdAt,value
2023-02-09T00:00:39.489Z,103014.17
2023-02-09T00:04:21.759Z,103014.04
2023-02-09T00:07:51.568Z,103010.41
2023-02-09T00:11:42.795Z,103009.21
2023-02-09T00:15:11.697Z,103012.10
2023-02-09T00:18:39.153Z,103003.23
2023-02-09T00:22:06.337Z,102997.02
2023-02-09T00:25:33.535Z,102992.96
2023-02-09T00:29:01.024Z,102993.84
2023-02-09T00:32:28.384Z,102995.89
2023-02-09T00:35:55.910Z,103001.73
2023-02-09T00:39:23.719Z,102999.55
2023-02-09T00:42:50.908Z,102995.64
2023-02-09T00:46:18.109Z,102990.64
2023-02-09T00:49:45.371Z,102986.63
2023-02-09T00:53:12.510Z,102982.80
2023-02-09T00:56:41.345Z,102974.95
2023-02-09T01:00:10.826Z,102964.55
2023-02-09T01:03:38.111Z,102958.64
2023-02-09T01:07:05.465Z,102956.05
2023-02-09T01:10:32.748Z,102955.36
2023-02-09T01:14:12.064Z,102950.98
2023-02-09T01:17:37.764Z,102941.83
2023-02-09T01:21:10.516Z,102938.27
2023-02-09T01:24:38.547Z,102942.66
2023-02-09T01:28:05.975Z,102939.63
2023-02-09T01:31:41.261Z,102937.50
2023-02-09T01:35:12.635Z,102932.84
2023-02-09T01:38:39.851Z,102937.60
2023-02-09T01:42:12.996Z,102934.89
2023-02-09T01:45:47.545Z,102930.91
2023-02-09T01:49:17.334Z,102925.58
2023-02-09T01:52:50.395Z,102919.75
2023-02-09T01:56:27.031Z,102916.80
2023-02-09T02:00:02.541Z,102907.57
2023-02-09T02:03:41.779Z,102900.39
2023-02-09T02:07:18.029Z,102890.48
2023-02-09T02:10:45.604Z,102887.77
2023-02-09T02:14:35.586Z,102883.23
2023-02-09T02:18:31.617Z,102875.29
2023-02-09T02:22:37.168Z,102863.13
2023-02-09T02:26:35.430Z,102857.09
2023-02-09T02:30:43.670Z,102853.43
2023-02-09T02:34:25.590Z,102843.65
2023-02-09T02:38:01.892Z,102840.66
2023-02-09T02:41:59.434Z,102834.68
2023-02-09T02:45:38.270Z,102829.02
2023-02-09T02:49:11.267Z,102823.56
2023-02-09T02:52:45.113Z,102817.25
2023-02-09T02:56:20.700Z,102813.14
2023-02-09T02:59:54.972Z,102807.27
2023-02-09T03:03:27.094Z,102805.54
2023-02-09T03:06:54.572Z,102808.14
2023-02-09T03:10:34.678Z,102803.40
2023-02-09T03:14:14.139Z,102805.70
2023-02-09T03:17:48.631Z,102803.59
2023-02-09T03:21:21.432Z,102802.97
2023-02-09T03:24:54.407Z,102793.66
2023-02-09T03:28:28.560Z,102786.95
2023-02-09T03:31:56.513Z,102776.92
2023-02-09T03:35:25.144Z,102783.42
2023-02-09T03:38:52.347Z,102777.27
2023-02-09T03:42:19.546Z,102773.44
2023-02-09T03:45:46.866Z,102775.04
2023-02-09T03:49:15.351Z,102770.62
2023-02-09T03:52:53.710Z,102764.61
2023-02-09T03:56:25.064Z,102767.05
2023-02-09T03:59:52.295Z,102763.52
2023-02-09T04:03:19.467Z,102759.30
2023-02-09T04:06:46.997Z,102760.79
2023-02-09T04:10:25.616Z,102763.98
2023-02-09T04:13:52.901Z,102764.11
2023-02-09T04:17:20.175Z,102760.84
2023-02-09T04:20:47.663Z,102754.18
2023-02-09T04:24:15.330Z,102752.20
2023-02-09T04:27:42.401Z,102745.09
2023-02-09T04:31:10.050Z,102739.78
2023-02-09T04:34:37.281Z,102733.00
2023-02-09T04:38:06.700Z,102731.36
2023-02-09T04:41:34.196Z,102726.84
2023-02-09T04:45:04.632Z,102724.95
2023-02-09T04:48:32.957Z,102718.49
2023-02-09T04:52:00.126Z,102720.71
2023-02-09T04:55:27.400Z,102715.21
2023-02-09T04:59:14.894Z,102716.65
2023-02-09T05:02:42.123Z,102708.90
2023-02-09T05:06:09.886Z,102703.70
2023-02-09T05:09:40.117Z,102700.09
2023-02-09T05:13:10.377Z,102698.94
2023-02-09T05:16:39.232Z,102697.66
2023-02-09T05:20:12.029Z,102690.84
2023-02-09T05:23:39.151Z,102686.20
2023-02-09T05:27:06.582Z,102686.30
2023-02-09T05:30:34.664Z,102680.65
2023-02-09T05:34:02.673Z,102675.52
2023-02-09T05:37:29.965Z,102671.45
2023-02-09T05:40:57.482Z,102666.81
2023-02-09T05:44:24.939Z,102667.92
2023-02-09T05:48:12.359Z,102661.83
2023-02-09T05:51:39.532Z,102658.41
2023-02-09T05:55:07.853Z,102659.02
2023-02-09T05:58:34.939Z,102655.78
2023-02-09T06:02:02.797Z,102653.05
2023-02-09T06:05:30.366Z,102651.05
2023-02-09T06:08:57.500Z,102652.25
2023-02-09T06:12:24.818Z,102651.40
2023-02-09T06:15:52.232Z,102650.31
2023-02-09T06:19:21.806Z,102649.15
2023-02-09T06:22:48.968Z,102642.34
2023-02-09T06:26:17.970Z,102640.23
2023-02-09T06:29:47.800Z,102640.36
2023-02-09T06:33:15.079Z,102633.33
2023-02-09T06:36:42.831Z,102630.61
2023-02-09T06:40:11.696Z,102633.64
2023-02-09T06:43:39.039Z,102627.99
2023-02-09T06:47:06.648Z,102629.34
2023-02-09T06:50:34.030Z,102631.82
2023-02-09T06:54:01.301Z,102634.59
2023-02-09T06:57:29.722Z,102625.27
2023-02-09T07:00:56.857Z,102614.71
2023-02-09T07:04:24.163Z,102618.23
2023-02-09T07:07:51.343Z,102616.71
2023-02-09T07:11:20.091Z,102616.44
2023-02-09T07:14:47.435Z,102617.45
2023-02-09T07:18:14.709Z,102613.88
2023-02-09T07:21:42.175Z,102607.80
2023-02-09T07:25:10.394Z,102607.95
2023-02-09T07:28:38.406Z,102602.31
2023-02-09T07:32:06.959Z,102602.30
2023-02-09T07:35:34.487Z,102599.84
2023-02-09T07:39:01.776Z,102604.55
2023-02-09T07:42:29.279Z,102605.87
2023-02-09T07:46:01.703Z,102609.02
2023-02-09T07:49:28.885Z,102609.07
2023-02-09T07:52:57.372Z,102610.27
2023-02-09T07:56:24.581Z,102603.41
2023-02-09T07:59:51.822Z,102604.65
2023-02-09T08:03:21.455Z,102603.43
2023-02-09T08:06:49.468Z,102601.52
2023-02-09T08:10:16.484Z,102604.42
2023-02-09T08:13:44.487Z,102607.84
2023-02-09T08:17:24.246Z,102605.94
2023-02-09T08:20:50.433Z,102603.64
2023-02-09T08:24:21.922Z,102599.33
2023-02-09T08:27:49.606Z,102601.77
2023-02-09T08:31:19.248Z,102604.95
2023-02-09T08:34:44.743Z,102601.41
2023-02-09T08:38:12.180Z,102594.04
2023-02-09T08:41:39.438Z,102591.35
2023-02-09T08:45:08.115Z,102587.45
2023-02-09T08:48:36.857Z,102583.90
2023-02-09T08:52:04.103Z,102584.17
2023-02-09T08:55:31.513Z,102584.73
2023-02-09T08:58:58.685Z,102583.00
2023-02-09T09:02:25.910Z,102582.34
2023-02-09T09:05:56.597Z,102581.63
2023-02-09T09:09:23.732Z,102579.52
2023-02-09T09:12:52.483Z,102583.67
2023-02-09T09:16:21.891Z,102578.36
2023-02-09T09:19:52.652Z,102580.30
2023-02-09T09:23:21.257Z,102584.53
2023-02-09T09:26:48.557Z,102582.14
2023-02-09T09:30:16.900Z,102577.12
2023-02-09T09:33:45.064Z,102574.73
2023-02-09T09:37:12.256Z,102569.23
2023-02-09T09:40:42.939Z,102563.63
2023-02-09T09:44:17.146Z,102565.19
2023-02-09T09:47:45.917Z,102562.66
2023-02-09T09:51:21.591Z,102563.98
2023-02-09T09:54:48.894Z,102563.90
2023-02-09T09:58:25.325Z,102560.28
2023-02-09T10:01:54.851Z,102562.65
2023-02-09T10:05:21.948Z,102565.75
2023-02-09T10:08:54.760Z,102567.14
2023-02-09T10:12:39.383Z,102569.94
2023-02-09T10:16:18.900Z,102564.73
2023-02-09T10:20:09.171Z,102560.83
2023-02-09T10:23:45.367Z,102562.25
2023-02-09T10:27:29.822Z,102561.27
2023-02-09T10:31:00.027Z,102566.64
2023-02-09T10:34:33.727Z,102558.52
2023-02-09T10:38:04.707Z,102555.73
2023-02-09T10:41:35.612Z,102547.02
2023-02-09T10:45:15.765Z,102541.36
2023-02-09T10:48:47.907Z,102536.63
2023-02-09T10:52:23.548Z,102532.80
2023-02-09T10:55:51.265Z,102526.17
2023-02-09T10:59:23.481Z,102527.48
2023-02-09T11:02:52.090Z,102523.90
2023-02-09T11:06:21.350Z,102517.91
2023-02-09T11:09:53.245Z,102515.81
2023-02-09T11:13:26.178Z,102510.86
2023-02-09T11:17:18.227Z,102502.39
2023-02-09T11:20:51.419Z,102493.23
2023-02-09T11:24:42.956Z,102488.75
2023-02-09T11:28:28.540Z,102483.23
2023-02-09T11:32:10.737Z,102475.00
2023-02-09T11:35:48.635Z,102475.43
2023-02-09T11:39:21.744Z,102471.07
2023-02-09T11:42:55.708Z,102467.41
2023-02-09T11:46:25.941Z,102464.73
2023-02-09T11:49:55.220Z,102452.30
2023-02-09T11:53:29.274Z,102446.75
2023-02-09T11:57:02.722Z,102440.63
2023-02-09T12:00:47.982Z,102438.07
2023-02-09T12:04:20.804Z,102431.36
2023-02-09T12:08:03.032Z,102428.35
2023-02-09T12:11:38.311Z,102420.59
2023-02-09T12:15:14.953Z,102417.59
2023-02-09T12:18:44.543Z,102407.45
2023-02-09T12:22:46.152Z,102401.77
2023-02-09T12:26:37.961Z,102399.80
2023-02-09T12:30:29.879Z,102395.27
2023-02-09T12:34:29.666Z,102387.01
2023-02-09T12:38:15.786Z,102382.73
2023-02-09T12:42:17.679Z,102380.67
2023-02-09T12:46:17.211Z,102377.66
2023-02-09T12:49:45.442Z,102370.64
2023-02-09T12:53:45.017Z,102367.70
2023-02-09T12:57:48.549Z,102361.96
2023-02-09T13:01:17.721Z,102353.98
2023-02-09T13:04:55.212Z,102344.20
2023-02-09T13:08:37.061Z,102340.20
2023-02-09T13:12:12.336Z,102335.84
2023-02-09T13:15:53.266Z,102323.39
2023-02-09T13:19:54.068Z,102316.45
2023-02-09T13:23:30.051Z,102306.55
2023-02-09T13:26:59.340Z,102307.31
2023-02-09T13:30:32.092Z,102309.58
2023-02-09T13:34:04.584Z,102306.80
2023-02-09T13:37:43.064Z,102308.19
2023-02-09T13:41:23.319Z,102312.02
2023-02-09T13:44:54.133Z,102314.69
2023-02-09T13:48:27.249Z,102314.35
2023-02-09T13:52:13.123Z,102315.02
2023-02-09T13:55:42.834Z,102316.07
2023-02-09T13:59:13.679Z,102316.06
2023-02-09T14:02:44.702Z,102310.42
2023-02-09T14:06:18.177Z,102307.17
2023-02-09T14:09:51.151Z,102295.45
2023-02-09T14:13:30.827Z,102288.52
2023-02-09T14:17:25.499Z,102288.23
2023-02-09T14:21:04.517Z,102280.13
2023-02-09T14:24:44.331Z,102281.93
2023-02-09T14:28:17.285Z,102301.49
2023-02-09T14:31:47.718Z,102310.86
2023-02-09T14:35:24.250Z,102302.08
2023-02-09T14:38:51.905Z,102306.89
2023-02-09T14:42:20.140Z,102305.48
2023-02-09T14:45:49.830Z,102306.59
2023-02-09T14:49:17.346Z,102297.66
2023-02-09T14:52:47.292Z,102296.70
2023-02-09T14:56:23.203Z,102279.04
2023-02-09T14:59:50.658Z,102269.06
2023-02-09T15:03:17.854Z,102259.01
2023-02-09T15:06:48.975Z,102252.60
2023-02-09T15:10:28.525Z,102251.70
2023-02-09T15:13:57.679Z,102254.73
2023-02-09T15:17:28.088Z,102246.77
2023-02-09T15:20:55.662Z,102244.46
2023-02-09T15:24:22.804Z,102243.87
2023-02-09T15:27:52.609Z,102241.92
2023-02-09T15:31:20.021Z,102246.50
2023-02-09T15:34:51.882Z,102246.88
2023-02-09T15:38:19.929Z,102238.12
2023-02-09T15:42:05.096Z,102229.10
2023-02-09T15:45:50.777Z,102225.65
2023-02-09T15:49:17.975Z,102232.76
2023-02-09T15:52:45.410Z,102229.09
2023-02-09T15:56:14.368Z,102225.29
2023-02-09T15:59:42.665Z,102230.66
2023-02-09T16:03:16.602Z,102236.98
2023-02-09T16:06:53.026Z,102244.96
2023-02-09T16:10:25.199Z,102249.15
2023-02-09T16:13:52.613Z,102246.72
2023-02-09T16:17:19.782Z,102246.13
2023-02-09T16:20:51.032Z,102251.86
2023-02-09T16:24:23.796Z,102255.39
2023-02-09T16:27:52.614Z,102247.75
2023-02-09T16:31:20.438Z,102249.01
2023-02-09T16:34:48.017Z,102250.61
2023-02-09T16:38:20.389Z,102257.33
2023-02-09T16:41:49.781Z,102267.34
2023-02-09T16:45:18.771Z,102271.23
2023-02-09T16:48:48.437Z,102248.40
2023-02-09T16:52:20.247Z,102247.63
2023-02-09T16:55:50.348Z,102244.46
2023-02-09T16:59:17.990Z,102219.44
2023-02-09T17:02:49.229Z,102221.81
2023-02-09T17:06:21.329Z,102216.74
2023-02-09T17:09:48.430Z,102207.46
2023-02-09T17:13:17.473Z,102202.91
2023-02-09T17:16:49.675Z,102203.36
2023-02-09T17:20:22.282Z,102199.54
2023-02-09T17:23:51.778Z,102206.80
2023-02-09T17:27:19.376Z,102205.02
2023-02-09T17:30:49.752Z,102199.63
2023-02-09T17:34:18.794Z,102208.84
2023-02-09T17:37:46.762Z,102215.52
2023-02-09T17:41:18.659Z,102214.66
2023-02-09T17:44:46.852Z,102216.36
2023-02-09T17:48:15.112Z,102216.68
2023-02-09T17:51:46.091Z,102211.45
2023-02-09T17:55:21.263Z,102216.34
2023-02-09T17:58:48.618Z,102224.42
2023-02-09T18:02:19.867Z,102228.58
2023-02-09T18:05:50.164Z,102226.85
2023-02-09T18:09:17.665Z,102223.76
2023-02-09T18:12:45.343Z,102219.44
2023-02-09T18:16:13.767Z,102215.55
2023-02-09T18:19:42.369Z,102222.56
2023-02-09T18:23:09.690Z,102218.79
2023-02-09T18:26:37.084Z,102218.45
2023-02-09T18:30:04.697Z,102196.60
2023-02-09T18:33:31.972Z,102179.62
2023-02-09T18:36:59.277Z,102190.10
2023-02-09T18:40:27.108Z,102179.47
2023-02-09T18:43:54.636Z,102170.30
2023-02-09T18:47:22.339Z,102167.48
2023-02-09T18:50:49.654Z,102175.77
2023-02-09T18:54:16.874Z,102165.36
2023-02-09T18:57:44.095Z,102169.50
2023-02-09T19:01:14.531Z,102164.35
2023-02-09T19:04:42.389Z,102168.73
2023-02-09T19:08:10.323Z,102172.41
2023-02-09T19:11:37.637Z,102181.38
2023-02-09T19:15:05.204Z,102175.58
2023-02-09T19:18:34.532Z,102178.92
2023-02-09T19:22:01.924Z,102178.11
2023-02-09T19:25:31.494Z,102180.85
2023-02-09T19:29:00.100Z,102190.94
2023-02-09T19:32:28.178Z,102179.69
2023-02-09T19:36:02.486Z,102187.86
2023-02-09T19:39:32.463Z,102189.36
2023-02-09T19:42:59.877Z,102191.59
2023-02-09T19:46:27.590Z,102193.19
2023-02-09T19:49:54.915Z,102186.52
2023-02-09T19:53:22.280Z,102186.15
2023-02-09T19:56:49.563Z,102177.59
2023-02-09T20:00:19.275Z,102173.42
2023-02-09T20:03:48.134Z,102177.73
2023-02-09T20:07:15.955Z,102172.58
2023-02-09T20:10:44.972Z,102168.85
2023-02-09T20:14:12.662Z,102175.38
2023-02-09T20:17:39.817Z,102177.59
2023-02-09T20:21:09.870Z,102174.08
2023-02-09T20:24:37.352Z,102178.60
2023-02-09T20:28:04.442Z,102184.89
2023-02-09T20:31:35.021Z,102185.30
2023-02-09T20:35:02.619Z,102185.73
2023-02-09T20:38:29.800Z,102177.45
2023-02-09T20:42:17.620Z,102166.16
2023-02-09T20:46:02.771Z,102174.29
2023-02-09T20:49:37.032Z,102169.45
2023-02-09T20:53:04.528Z,102172.38
2023-02-09T20:56:32.097Z,102171.30
2023-02-09T21:00:00.180Z,102169.97
2023-02-09T21:03:27.697Z,102166.55
2023-02-09T21:06:55.163Z,102154.70
2023-02-09T21:10:23.076Z,102153.76
2023-02-09T21:13:50.280Z,102157.50
2023-02-09T21:17:17.888Z,102157.09
2023-02-09T21:20:45.322Z,102153.48
2023-02-09T21:24:12.762Z,102149.88
2023-02-09T21:27:39.888Z,102149.90
2023-02-09T21:31:12.479Z,102158.61
2023-02-09T21:34:39.646Z,102155.35
2023-02-09T21:38:07.406Z,102148.96
2023-02-09T21:41:52.538Z,102142.19
2023-02-09T21:45:20.047Z,102147.54
2023-02-09T21:48:47.526Z,102143.69
2023-02-09T21:52:14.704Z,102141.76
2023-02-09T21:55:42.702Z,102146.67
2023-02-09T21:59:10.459Z,102146.45
2023-02-09T22:02:38.836Z,102147.23
2023-02-09T22:06:07.131Z,102145.64
2023-02-09T22:09:34.535Z,102142.98
2023-02-09T22:13:08.723Z,102138.12
2023-02-09T22:16:36.164Z,102140.88
2023-02-09T22:20:03.508Z,102144.67
2023-02-09T22:23:30.986Z,102152.53
2023-02-09T22:26:59.271Z,102159.41
2023-02-09T22:30:26.496Z,102163.33
2023-02-09T22:33:58.604Z,102165.70
2023-02-09T22:37:25.688Z,102166.73
2023-02-09T22:40:52.936Z,102163.54
2023-02-09T22:44:20.594Z,102164.44
2023-02-09T22:47:47.768Z,102169.33
2023-02-09T22:51:18.823Z,102175.44
2023-02-09T22:54:46.130Z,102178.88
2023-02-09T22:58:13.408Z,102176.41
2023-02-09T23:01:41.103Z,102175.92
2023-02-09T23:05:09.343Z,102171.60
2023-02-09T23:08:37.242Z,102173.54
2023-02-09T23:12:05.570Z,102174.45
2023-02-09T23:15:32.938Z,102171.06
2023-02-09T23:19:04.014Z,102164.44
2023-02-09T23:22:31.141Z,102163.69
2023-02-09T23:25:58.959Z,102160.70
2023-02-09T23:29:26.397Z,102161.86
2023-02-09T23:32:53.550Z,102161.85
2023-02-09T23:36:24.850Z,102157.41
2023-02-09T23:39:52.087Z,102159.63
2023-02-09T23:43:19.451Z,102161.59
2023-02-09T23:46:46.884Z,102164.06
2023-02-09T23:50:14.173Z,102168.05
2023-02-09T23:53:49.577Z,102169.73
2023-02-09T23:57:18.106Z,102171.01
